Time;durP1;ratioP1;P1;durP2;ratioP2;P2;SDS_P1;SDS_P2;PMS_P1;PMS_P2;Temp;Humidity;BMP_temperature;BMP_pressure;BME280_temperature;BME280_humidity;BME280_pressure;Samples;Min_cycle;Max_cycle;Signal;HPM_P1;HPM_P2
2023/12/23 00:00:06;;;;;;;3.40;0.80;;;8.90;27.50;;;;;;5043063;28;20478;-70
2023/12/23 00:02:32;;;;;;;2.90;0.53;;;8.90;27.30;;;;;;5040372;28;20479;-70
2023/12/23 00:04:59;;;;;;;3.10;0.60;;;8.90;27.20;;;;;;5047347;28;20639;-70
2023/12/23 00:07:26;;;;;;;2.80;0.40;;;8.80;27.20;;;;;;5048595;28;20453;-70
2023/12/23 00:09:53;;;;;;;3.40;0.60;;;8.80;27.10;;;;;;5048022;28;20509;-70
2023/12/23 00:12:19;;;;;;;3.30;0.53;;;8.80;27.00;;;;;;5048376;28;20468;-71
2023/12/23 00:14:46;;;;;;;2.80;0.40;;;8.80;27.20;;;;;;5043763;28;20494;-70
2023/12/23 00:17:14;;;;;;;3.33;0.40;;;8.80;27.10;;;;;;5042833;28;20463;-70
2023/12/23 00:19:41;;;;;;;2.90;0.50;;;8.80;27.40;;;;;;5040474;28;21002;-70
2023/12/23 00:22:08;;;;;;;3.23;0.50;;;8.80;26.80;;;;;;5043732;28;20469;-70
2023/12/23 00:24:34;;;;;;;2.90;0.40;;;8.80;26.70;;;;;;5049013;28;20462;-70
2023/12/23 00:27:01;;;;;;;3.13;0.40;;;8.80;26.60;;;;;;5046664;28;20457;-70
2023/12/23 00:29:28;;;;;;;3.60;0.53;;;8.80;26.40;;;;;;5047930;28;20486;-70
2023/12/23 00:31:55;;;;;;;3.07;0.60;;;8.80;26.40;;;;;;5042775;28;20996;-70
2023/12/23 00:34:23;;;;;;;3.10;0.50;;;8.80;26.30;;;;;;5045846;28;20474;-70
2023/12/23 00:36:49;;;;;;;3.20;0.50;;;8.80;26.40;;;;;;5042294;28;20469;-70
2023/12/23 00:39:16;;;;;;;5.67;0.57;;;8.80;26.30;;;;;;5040962;28;21025;-70
2023/12/23 00:41:43;;;;;;;3.43;0.60;;;8.80;26.10;;;;;;5046245;28;20986;-70
2023/12/23 00:44:10;;;;;;;2.77;0.40;;;8.80;25.70;;;;;;5042634;28;20458;-70
2023/12/23 00:46:36;;;;;;;2.80;0.50;;;8.80;25.40;;;;;;5046920;28;20825;-70
2023/12/23 00:49:03;;;;;;;4.30;0.60;;;8.80;25.30;;;;;;5043311;28;20489;-70
2023/12/23 00:51:31;;;;;;;3.40;0.50;;;8.80;25.10;;;;;;5043723;28;20488;-70
2023/12/23 00:53:58;;;;;;;3.73;0.90;;;8.80;25.30;;;;;;5043806;28;20477;-71
2023/12/23 00:56:25;;;;;;;2.77;0.40;;;8.80;25.60;;;;;;5043438;28;20466;-71
2023/12/23 00:58:51;;;;;;;3.33;0.70;;;8.80;25.90;;;;;;5044762;28;20501;-70
2023/12/23 01:01:18;;;;;;;3.70;1.40;;;8.80;26.00;;;;;;5043230;28;20474;-70
2023/12/23 01:03:45;;;;;;;2.90;0.50;;;8.80;26.20;;;;;;5044620;28;20462;-70
2023/12/23 01:06:12;;;;;;;2.83;0.60;;;8.70;26.00;;;;;;5048398;28;20477;-70
2023/12/23 01:08:40;;;;;;;4.90;0.60;;;8.70;26.20;;;;;;5045623;28;20833;-70
2023/12/23 01:11:06;;;;;;;4.43;0.73;;;8.80;26.20;;;;;;5043114;28;20469;-70
2023/12/23 01:13:33;;;;;;;3.00;0.40;;;8.80;26.30;;;;;;5040761;28;21028;-71
2023/12/23 01:16:00;;;;;;;3.13;0.47;;;8.70;26.50;;;;;;5045900;28;20458;-70
2023/12/23 01:18:26;;;;;;;3.40;0.40;;;8.70;26.40;;;;;;5044775;28;20462;-70
2023/12/23 01:20:52;;;;;;;3.00;0.60;;;8.70;26.50;;;;;;5047129;28;21084;-70
2023/12/23 01:23:19;;;;;;;3.17;0.50;;;8.70;26.80;;;;;;5046439;28;20210;-70
2023/12/23 01:25:47;;;;;;;3.20;0.53;;;8.70;26.90;;;;;;5045319;28;20465;-70
2023/12/23 01:28:14;;;;;;;2.80;0.50;;;8.70;27.20;;;;;;5040394;28;20454;-70
2023/12/23 01:30:41;;;;;;;3.10;0.37;;;8.70;27.40;;;;;;5047579;28;20470;-70
2023/12/23 01:33:07;;;;;;;3.30;0.73;;;8.70;27.70;;;;;;5046009;28;20470;-70
2023/12/23 01:35:34;;;;;;;2.80;0.40;;;8.70;28.00;;;;;;5044640;28;20529;-69
2023/12/23 01:38:01;;;;;;;3.00;0.40;;;8.60;28.00;;;;;;5048711;28;20525;-70
2023/12/23 01:40:28;;;;;;;2.90;0.50;;;8.70;28.30;;;;;;5042190;28;20497;-70
2023/12/23 01:42:56;;;;;;;5.00;0.50;;;8.60;28.30;;;;;;5047897;28;20462;-71
2023/12/23 01:45:23;;;;;;;3.37;0.50;;;8.60;28.40;;;;;;5041693;28;21002;-70
2023/12/23 01:47:54;;;;;;;3.30;0.60;;;8.60;28.50;;;;;;5044666;28;20469;-70
2023/12/23 01:50:22;;;;;;;3.57;0.70;;;8.60;28.50;;;;;;5045880;28;20498;-70
2023/12/23 01:52:51;;;;;;;2.83;0.40;;;8.60;28.40;;;;;;5047401;28;20462;-70
2023/12/23 01:55:18;;;;;;;3.20;0.43;;;8.60;28.60;;;;;;5048575;28;20474;-70
2023/12/23 01:57:45;;;;;;;2.90;0.50;;;8.60;28.50;;;;;;5047327;28;20450;-70
2023/12/23 02:00:13;;;;;;;3.77;0.50;;;8.60;28.50;;;;;;5038607;28;20518;-70
2023/12/23 02:02:40;;;;;;;3.43;0.50;;;8.60;28.60;;;;;;5046058;28;20470;-70
2023/12/23 02:05:07;;;;;;;3.57;0.67;;;8.60;28.90;;;;;;5047309;28;20463;-70
2023/12/23 02:07:34;;;;;;;2.77;0.33;;;8.60;28.80;;;;;;5044577;28;20847;-70
2023/12/23 02:10:02;;;;;;;2.73;0.37;;;8.50;29.00;;;;;;5043503;28;20485;-70
2023/12/23 02:12:36;;;;;;;3.00;0.40;;;8.50;29.00;;;;;;5040172;28;20453;-70
2023/12/23 02:15:09;;;;;;;2.77;0.40;;;8.50;29.20;;;;;;5046862;28;20492;-70
2023/12/23 02:17:39;;;;;;;2.80;0.40;;;8.60;29.20;;;;;;5047767;28;20458;-70
2023/12/23 02:20:06;;;;;;;3.10;0.70;;;8.60;29.50;;;;;;5045798;28;20489;-70
2023/12/23 02:22:35;;;;;;;3.33;0.60;;;8.50;29.30;;;;;;5042381;28;20730;-69
2023/12/23 02:25:02;;;;;;;3.97;0.50;;;8.50;29.40;;;;;;5044681;28;20951;-71
2023/12/23 02:27:32;;;;;;;3.10;0.60;;;8.50;29.60;;;;;;5044290;28;20490;-70
2023/12/23 02:29:59;;;;;;;2.90;0.50;;;8.50;29.70;;;;;;5044663;28;20500;-70
2023/12/23 02:32:27;;;;;;;2.80;0.40;;;8.50;29.70;;;;;;5040220;28;20478;-70
2023/12/23 02:34:54;;;;;;;2.80;0.40;;;8.50;29.70;;;;;;5044476;28;21053;-70
2023/12/23 02:37:21;;;;;;;6.80;0.50;;;8.50;29.80;;;;;;5042601;28;20519;-71
2023/12/23 02:39:49;;;;;;;3.27;0.70;;;8.50;29.80;;;;;;5042044;28;20486;-70
2023/12/23 02:42:16;;;;;;;2.83;0.43;;;8.40;29.90;;;;;;5041723;28;20466;-70
2023/12/23 02:44:42;;;;;;;3.10;0.50;;;8.50;30.00;;;;;;5044427;28;20458;-70
2023/12/23 02:47:09;;;;;;;3.10;0.40;;;8.50;30.00;;;;;;5042564;28;20474;-70
2023/12/23 02:49:36;;;;;;;2.80;0.40;;;8.40;30.00;;;;;;5047087;28;20967;-70
2023/12/23 02:52:03;;;;;;;3.93;0.50;;;8.40;30.10;;;;;;5040672;28;20491;-70
2023/12/23 02:54:28;;;;;;;2.90;0.40;;;8.40;30.20;;;;;;5046002;28;20489;-70
2023/12/23 02:56:56;;;;;;;4.23;0.50;;;8.40;30.20;;;;;;5042729;28;20470;-70
2023/12/23 02:59:23;;;;;;;3.10;0.50;;;8.40;30.30;;;;;;5042570;28;20227;-70
2023/12/23 03:01:50;;;;;;;2.90;0.50;;;8.40;30.30;;;;;;5043765;28;20476;-70
2023/12/23 03:04:16;;;;;;;3.60;0.80;;;8.40;30.20;;;;;;5040613;28;20476;-69
2023/12/23 03:06:43;;;;;;;2.80;0.40;;;8.40;30.20;;;;;;5040808;28;20976;-70
2023/12/23 03:09:10;;;;;;;6.40;0.83;;;8.40;30.20;;;;;;5042092;28;20485;-70
2023/12/23 03:11:37;;;;;;;5.03;0.60;;;8.40;30.20;;;;;;5044856;28;20533;-70
2023/12/23 03:14:05;;;;;;;3.00;0.50;;;8.40;30.10;;;;;;5045873;28;20454;-70
2023/12/23 03:16:35;;;;;;;3.10;0.50;;;8.40;30.20;;;;;;5040647;28;21460;-69
2023/12/23 03:19:02;;;;;;;3.97;0.50;;;8.40;30.30;;;;;;5038026;28;20490;-69
2023/12/23 03:21:29;;;;;;;3.00;0.50;;;8.40;30.10;;;;;;5039408;28;20462;-69
2023/12/23 03:23:55;;;;;;;2.90;0.50;;;8.30;30.30;;;;;;5043070;28;20465;-70
2023/12/23 03:26:22;;;;;;;3.00;0.60;;;8.30;30.20;;;;;;5045530;28;20458;-70
2023/12/23 03:28:49;;;;;;;3.10;0.60;;;8.30;30.30;;;;;;5039292;28;20484;-70
2023/12/23 03:31:17;;;;;;;2.90;0.40;;;8.30;30.40;;;;;;5044356;28;20472;-70
2023/12/23 03:33:44;;;;;;;3.97;0.40;;;8.30;30.50;;;;;;5045936;28;20470;-70
2023/12/23 03:36:10;;;;;;;2.83;0.40;;;8.30;30.60;;;;;;5046266;28;20557;-69
2023/12/23 03:38:37;;;;;;;3.33;0.40;;;8.30;30.70;;;;;;5045760;28;20943;-70
2023/12/23 03:41:04;;;;;;;3.63;0.47;;;8.30;30.80;;;;;;5044936;28;20475;-70
2023/12/23 03:43:31;;;;;;;2.90;0.50;;;8.30;30.80;;;;;;5047633;28;20830;-70
2023/12/23 03:45:58;;;;;;;6.40;0.60;;;8.30;30.90;;;;;;5046255;28;20465;-70
2023/12/23 03:48:27;;;;;;;3.20;0.53;;;8.30;31.00;;;;;;5048834;28;20454;-71
2023/12/23 03:50:54;;;;;;;3.13;0.57;;;8.20;31.00;;;;;;5046710;28;20966;-70
2023/12/23 03:53:20;;;;;;;3.73;0.60;;;8.20;31.20;;;;;;5046086;28;20458;-70
2023/12/23 03:55:47;;;;;;;2.80;0.40;;;8.20;31.40;;;;;;5045481;28;20496;-69
2023/12/23 03:58:14;;;;;;;2.87;0.40;;;8.20;31.20;;;;;;5042270;28;20474;-70
2023/12/23 04:00:40;;;;;;;4.80;0.40;;;8.20;31.80;;;;;;5041424;28;20957;-70
2023/12/23 04:03:07;;;;;;;3.00;0.50;;;8.20;31.40;;;;;;5047086;28;20470;-69
2023/12/23 04:05:35;;;;;;;3.37;0.50;;;8.20;31.40;;;;;;5045828;28;20470;-70
2023/12/23 04:08:02;;;;;;;2.80;0.40;;;8.20;31.50;;;;;;5043652;28;20811;-70
2023/12/23 04:10:29;;;;;;;3.23;0.50;;;8.20;31.50;;;;;;5046978;28;20481;-70
2023/12/23 04:12:56;;;;;;;2.73;0.37;;;8.20;31.70;;;;;;5048757;28;20466;-70
2023/12/23 04:15:23;;;;;;;3.33;0.50;;;8.20;31.70;;;;;;5042721;28;20478;-70
2023/12/23 04:17:50;;;;;;;3.00;0.43;;;8.20;31.80;;;;;;5049092;28;20462;-70
2023/12/23 04:20:17;;;;;;;2.80;0.40;;;8.20;31.60;;;;;;5041693;28;20490;-70
2023/12/23 04:22:47;;;;;;;3.37;0.40;;;8.20;31.70;;;;;;5048398;28;20454;-70
2023/12/23 04:25:14;;;;;;;3.77;0.50;;;8.20;31.60;;;;;;5041418;28;20475;-70
2023/12/23 04:27:41;;;;;;;3.07;0.40;;;8.20;31.70;;;;;;5047481;28;20469;-70
2023/12/23 04:30:08;;;;;;;3.00;0.60;;;8.20;31.50;;;;;;5045735;28;20486;-70
2023/12/23 04:32:35;;;;;;;2.80;0.40;;;8.20;31.60;;;;;;5044138;28;20479;-69
2023/12/23 04:35:03;;;;;;;2.80;0.40;;;8.20;31.50;;;;;;5047512;28;20485;-70
2023/12/23 04:37:30;;;;;;;3.13;0.50;;;8.10;31.50;;;;;;5047815;28;20492;-70
2023/12/23 04:39:58;;;;;;;2.90;0.40;;;8.10;31.70;;;;;;5045633;28;21005;-70
2023/12/23 04:42:24;;;;;;;3.33;0.50;;;8.10;31.70;;;;;;5045737;28;20470;-70
2023/12/23 04:44:51;;;;;;;3.67;0.40;;;8.10;31.70;;;;;;5044047;28;20465;-70
2023/12/23 04:47:18;;;;;;;2.80;0.40;;;8.10;31.70;;;;;;5045989;28;21032;-70
2023/12/23 04:49:44;;;;;;;5.27;0.40;;;8.10;31.70;;;;;;5045580;28;20485;-70
2023/12/23 04:52:11;;;;;;;2.97;0.50;;;8.10;31.80;;;;;;5045114;28;20467;-70
2023/12/23 04:54:38;;;;;;;3.37;0.73;;;8.10;31.80;;;;;;5042393;28;20474;-70
2023/12/23 04:57:06;;;;;;;2.90;0.33;;;8.10;31.80;;;;;;5048137;28;20478;-69
2023/12/23 04:59:33;;;;;;;3.17;0.60;;;8.10;31.70;;;;;;5045255;28;20501;-70
2023/12/23 05:02:00;;;;;;;2.97;0.37;;;8.10;31.70;;;;;;5042316;28;20470;-70
2023/12/23 05:04:27;;;;;;;3.10;0.40;;;8.10;31.80;;;;;;5063930;23;20454;-67
2023/12/23 05:06:54;;;;;;;3.30;0.40;;;8.10;31.80;;;;;;5043295;28;20487;-68
2023/12/23 05:09:21;;;;;;;3.27;0.43;;;8.00;31.80;;;;;;5038799;28;20491;-68
2023/12/23 05:11:47;;;;;;;3.10;0.50;;;8.10;31.90;;;;;;5026350;28;20475;-67
2023/12/23 05:14:16;;;;;;;2.73;0.37;;;8.00;31.80;;;;;;5027739;28;20962;-68
2023/12/23 05:16:43;;;;;;;3.50;0.30;;;8.00;31.80;;;;;;5027802;28;20483;-68
2023/12/23 05:19:09;;;;;;;4.23;0.50;;;8.00;31.80;;;;;;5024890;28;20497;-68
2023/12/23 05:21:36;;;;;;;3.80;0.50;;;8.00;32.00;;;;;;5028047;28;20463;-67
2023/12/23 05:24:03;;;;;;;3.33;0.50;;;8.00;32.20;;;;;;5026161;28;20963;-67
2023/12/23 05:26:30;;;;;;;3.20;0.40;;;8.00;32.30;;;;;;5024971;28;20482;-68
2023/12/23 05:28:56;;;;;;;4.00;0.40;;;8.00;32.40;;;;;;5030002;28;20486;-67
2023/12/23 05:31:24;;;;;;;4.10;0.57;;;8.00;32.60;;;;;;5027229;28;21019;-68
2023/12/23 05:33:55;;;;;;;3.13;0.50;;;8.00;32.60;;;;;;5026506;28;20963;-68
2023/12/23 05:36:21;;;;;;;3.37;0.63;;;8.00;32.50;;;;;;5026086;28;20567;-68
2023/12/23 05:38:48;;;;;;;2.80;0.57;;;8.00;32.70;;;;;;5029318;28;20498;-68
2023/12/23 05:41:15;;;;;;;3.83;0.67;;;8.00;32.70;;;;;;5027898;28;20543;-68
2023/12/23 05:43:43;;;;;;;2.80;0.40;;;8.00;32.70;;;;;;5025497;28;20467;-67
2023/12/23 05:46:10;;;;;;;3.40;0.40;;;8.00;32.80;;;;;;5030742;28;20463;-68
2023/12/23 05:48:38;;;;;;;4.70;0.70;;;8.00;32.80;;;;;;5044872;28;20462;-68
2023/12/23 05:51:08;;;;;;;3.87;0.53;;;8.00;33.00;;;;;;5038525;28;20459;-68
2023/12/23 05:53:35;;;;;;;3.73;0.60;;;7.90;32.90;;;;;;5028861;28;20466;-69
2023/12/23 05:56:04;;;;;;;2.80;0.47;;;8.00;32.90;;;;;;5026998;28;20990;-68
2023/12/23 05:58:31;;;;;;;3.90;0.60;;;8.00;32.80;;;;;;5026720;28;20466;-69
2023/12/23 06:00:58;;;;;;;3.10;0.50;;;7.90;33.00;;;;;;5025839;28;20490;-68
2023/12/23 06:03:24;;;;;;;3.07;0.40;;;7.90;33.00;;;;;;5027786;28;20459;-69
2023/12/23 06:05:52;;;;;;;2.80;0.40;;;7.90;32.70;;;;;;5025359;28;20461;-68
2023/12/23 06:08:19;;;;;;;4.63;0.60;;;7.90;32.60;;;;;;5025603;28;20466;-69
2023/12/23 06:10:46;;;;;;;2.73;0.33;;;7.90;32.50;;;;;;5028240;28;20493;-69
2023/12/23 06:13:13;;;;;;;2.90;0.50;;;7.90;32.40;;;;;;5024063;28;20474;-68
2023/12/23 06:15:39;;;;;;;3.07;0.50;;;7.90;32.50;;;;;;5023758;28;20470;-68
2023/12/23 06:18:07;;;;;;;3.00;0.50;;;7.90;32.40;;;;;;5023670;28;20458;-68
2023/12/23 06:20:33;;;;;;;3.00;0.57;;;7.90;32.30;;;;;;5021042;28;20495;-69
2023/12/23 06:23:01;;;;;;;2.90;0.43;;;7.90;32.50;;;;;;5026855;28;20457;-68
2023/12/23 06:25:29;;;;;;;3.43;0.70;;;7.90;32.70;;;;;;5033238;28;20451;-69
2023/12/23 06:27:56;;;;;;;3.37;0.60;;;7.90;32.60;;;;;;5029831;28;20481;-68
2023/12/23 06:30:23;;;;;;;3.03;0.60;;;7.90;32.20;;;;;;5026681;28;20483;-69
2023/12/23 06:32:49;;;;;;;3.37;0.40;;;7.90;31.70;;;;;;5027360;28;21020;-68
2023/12/23 06:35:17;;;;;;;3.50;0.50;;;7.90;31.80;;;;;;5027716;28;20500;-69
2023/12/23 06:37:44;;;;;;;2.80;0.40;;;7.90;31.80;;;;;;5032665;28;20458;-69
2023/12/23 06:40:15;;;;;;;3.20;0.40;;;7.90;31.50;;;;;;5024376;28;20834;-69
2023/12/23 06:42:41;;;;;;;3.00;0.40;;;7.90;31.40;;;;;;5024981;28;20653;-68
2023/12/23 06:45:09;;;;;;;4.00;0.60;;;7.90;31.30;;;;;;5025288;28;20981;-68
2023/12/23 06:47:36;;;;;;;3.20;0.40;;;7.90;31.20;;;;;;5024725;28;20463;-68
2023/12/23 06:50:02;;;;;;;3.53;0.53;;;7.90;31.20;;;;;;5023773;28;20971;-68
2023/12/23 06:52:29;;;;;;;2.77;0.40;;;7.90;31.00;;;;;;5025047;28;20470;-68
2023/12/23 06:54:56;;;;;;;2.90;0.43;;;7.90;30.90;;;;;;5021257;28;20473;-68
2023/12/23 06:57:24;;;;;;;2.90;0.50;;;7.90;31.00;;;;;;5022909;28;20607;-68
2023/12/23 06:59:52;;;;;;;4.07;0.50;;;7.90;30.80;;;;;;5027724;28;21137;-68
2023/12/23 07:02:18;;;;;;;4.23;0.60;;;7.90;30.80;;;;;;5026506;28;20517;-68
2023/12/23 07:04:46;;;;;;;3.20;0.63;;;7.90;30.80;;;;;;5025344;28;20466;-69
2023/12/23 07:07:12;;;;;;;2.83;0.43;;;7.90;30.70;;;;;;5028178;28;20546;-67
2023/12/23 07:09:39;;;;;;;4.90;0.67;;;7.90;30.60;;;;;;5027058;28;20497;-67
2023/12/23 07:12:08;;;;;;;5.23;0.77;;;7.90;30.60;;;;;;5029869;28;20455;-68
2023/12/23 07:14:36;;;;;;;3.03;0.47;;;7.90;30.50;;;;;;5030688;28;20478;-68
2023/12/23 07:17:03;;;;;;;3.17;0.40;;;7.90;30.40;;;;;;5030691;28;21022;-68
2023/12/23 07:19:30;;;;;;;2.80;0.40;;;7.90;30.50;;;;;;5031146;28;20478;-68
2023/12/23 07:21:56;;;;;;;4.43;0.50;;;7.90;30.40;;;;;;5030952;28;20816;-69
2023/12/23 07:24:23;;;;;;;3.03;0.60;;;7.90;30.30;;;;;;5031972;28;20463;-68
2023/12/23 07:26:50;;;;;;;3.00;0.50;;;7.90;30.40;;;;;;5028495;28;20552;-68
2023/12/23 07:29:17;;;;;;;3.87;0.60;;;7.90;30.20;;;;;;5033860;28;21011;-68
2023/12/23 07:31:45;;;;;;;3.57;0.50;;;7.90;30.20;;;;;;5029475;28;20471;-68
2023/12/23 07:34:12;;;;;;;2.80;0.50;;;7.90;30.00;;;;;;5030621;28;20839;-68
2023/12/23 07:36:39;;;;;;;2.70;0.30;;;7.90;30.00;;;;;;5029277;28;20475;-68
2023/12/23 07:39:05;;;;;;;3.10;0.50;;;7.90;29.90;;;;;;5039698;28;20482;-69
2023/12/23 07:41:32;;;;;;;2.80;0.40;;;8.00;30.00;;;;;;5032365;28;20470;-68
2023/12/23 07:43:59;;;;;;;3.20;0.47;;;8.00;29.70;;;;;;5029649;28;20470;-68
2023/12/23 07:46:25;;;;;;;2.90;0.40;;;8.00;29.70;;;;;;5028366;28;20463;-68
2023/12/23 07:48:53;;;;;;;3.10;0.60;;;8.00;29.30;;;;;;5029811;28;20475;-69
2023/12/23 07:51:21;;;;;;;2.80;0.43;;;8.00;29.20;;;;;;5030138;28;20466;-68
2023/12/23 07:53:48;;;;;;;3.20;0.40;;;8.00;29.20;;;;;;5029684;28;20466;-69
2023/12/23 07:56:15;;;;;;;2.80;0.40;;;8.00;29.20;;;;;;5030237;28;20483;-68
2023/12/23 07:58:41;;;;;;;2.90;0.43;;;8.00;29.10;;;;;;5028574;28;20479;-68
2023/12/23 08:01:08;;;;;;;2.90;0.33;;;8.00;29.20;;;;;;5026797;28;20487;-69
2023/12/23 08:03:35;;;;;;;2.97;0.50;;;8.00;29.10;;;;;;5027230;28;20472;-68
2023/12/23 08:06:03;;;;;;;3.40;0.67;;;8.00;29.20;;;;;;5026420;28;20472;-68
2023/12/23 08:08:30;;;;;;;2.90;0.50;;;8.00;29.20;;;;;;5026569;28;20461;-68
2023/12/23 08:10:57;;;;;;;2.80;0.37;;;8.10;29.10;;;;;;5028212;28;20830;-68
2023/12/23 08:13:24;;;;;;;3.43;0.63;;;8.10;29.00;;;;;;5030052;28;20463;-68
2023/12/23 08:15:51;;;;;;;2.90;0.60;;;8.10;29.20;;;;;;5029039;28;20478;-68
2023/12/23 08:18:17;;;;;;;2.73;0.40;;;8.10;28.90;;;;;;5029901;28;20463;-69
2023/12/23 08:20:44;;;;;;;2.70;0.40;;;8.10;28.90;;;;;;5025098;28;21077;-68
2023/12/23 08:23:12;;;;;;;3.27;0.60;;;8.10;28.70;;;;;;5030064;28;20458;-68
2023/12/23 08:25:39;;;;;;;2.70;0.30;;;8.10;29.00;;;;;;5029830;28;20455;-68
2023/12/23 08:28:07;;;;;;;3.40;0.50;;;8.10;29.00;;;;;;5029065;28;20446;-68
2023/12/23 08:30:34;;;;;;;2.70;0.40;;;8.20;28.90;;;;;;5028661;28;20525;-68
2023/12/23 08:33:01;;;;;;;3.50;0.60;;;8.20;29.00;;;;;;5027982;28;20459;-68
2023/12/23 08:35:28;;;;;;;5.43;0.80;;;8.20;29.60;;;;;;5028699;28;20474;-68
2023/12/23 08:37:54;;;;;;;3.07;0.50;;;8.20;28.90;;;;;;5028583;28;20492;-68
2023/12/23 08:40:22;;;;;;;2.90;0.60;;;8.20;29.00;;;;;;5028646;28;20510;-68
2023/12/23 08:42:49;;;;;;;3.00;0.50;;;8.20;28.90;;;;;;5040489;28;20463;-68
2023/12/23 08:45:17;;;;;;;2.90;0.40;;;8.20;29.10;;;;;;5037539;28;20459;-68
2023/12/23 08:47:44;;;;;;;3.47;0.70;;;8.20;29.00;;;;;;5028187;28;21018;-68
2023/12/23 08:50:11;;;;;;;3.30;0.50;;;8.20;29.20;;;;;;5027771;28;20482;-68
2023/12/23 08:52:37;;;;;;;3.20;0.47;;;8.20;29.30;;;;;;5027798;28;20459;-69
2023/12/23 08:55:05;;;;;;;3.10;0.60;;;8.20;29.20;;;;;;5022898;28;20463;-68
2023/12/23 08:57:33;;;;;;;2.93;0.53;;;8.20;29.40;;;;;;5027718;28;20483;-68
2023/12/23 09:00:01;;;;;;;2.87;0.53;;;8.20;29.50;;;;;;5026591;28;20497;-72
2023/12/23 09:02:27;;;;;;;3.50;1.00;;;8.20;29.60;;;;;;5026420;28;20532;-68
2023/12/23 09:04:54;;;;;;;3.30;0.67;;;8.20;29.80;;;;;;5024123;28;20479;-68
2023/12/23 09:07:21;;;;;;;4.80;0.73;;;8.20;29.70;;;;;;5023144;28;20452;-70
2023/12/23 09:09:47;;;;;;;3.03;0.57;;;8.20;29.90;;;;;;5027162;28;20841;-68
2023/12/23 09:12:14;;;;;;;3.03;0.60;;;8.20;29.90;;;;;;5024230;28;20458;-67
2023/12/23 09:14:42;;;;;;;3.50;0.70;;;8.20;29.70;;;;;;5024985;28;20475;-68
2023/12/23 09:17:09;;;;;;;2.90;0.60;;;8.30;30.30;;;;;;5026511;28;20479;-68
2023/12/23 09:19:36;;;;;;;3.70;0.60;;;8.20;29.60;;;;;;5027669;28;20487;-69
2023/12/23 09:22:02;;;;;;;3.83;0.80;;;8.20;29.50;;;;;;5025250;28;20463;-69
2023/12/23 09:24:30;;;;;;;3.83;1.00;;;8.20;29.20;;;;;;5027699;28;20843;-68
2023/12/23 09:26:56;;;;;;;4.03;0.80;;;8.20;29.10;;;;;;5027344;28;20455;-68
2023/12/23 09:29:23;;;;;;;3.00;0.60;;;8.30;29.00;;;;;;5027654;28;20486;-68
2023/12/23 09:31:51;;;;;;;3.30;0.60;;;8.20;28.90;;;;;;5025980;28;20502;-68
2023/12/23 09:34:20;;;;;;;3.67;0.70;;;8.20;28.90;;;;;;5029655;28;20473;-68
2023/12/23 09:36:47;;;;;;;4.83;0.47;;;8.20;29.10;;;;;;5031310;28;21014;-68
2023/12/23 09:39:14;;;;;;;2.80;0.53;;;8.20;28.90;;;;;;5029258;28;20492;-67
2023/12/23 09:41:41;;;;;;;2.87;0.40;;;8.20;28.90;;;;;;5025999;28;20466;-68
2023/12/23 09:44:08;;;;;;;2.90;0.50;;;8.20;29.00;;;;;;5025620;28;20467;-67
2023/12/23 09:46:37;;;;;;;3.47;0.70;;;8.20;28.90;;;;;;5020460;28;20455;-68
2023/12/23 09:49:05;;;;;;;3.37;1.30;;;8.20;29.10;;;;;;5024015;28;20561;-67
2023/12/23 09:51:33;;;;;;;3.20;0.80;;;8.20;29.00;;;;;;5028165;28;20946;-68
2023/12/23 09:54:04;;;;;;;2.90;0.50;;;8.30;29.20;;;;;;5028882;28;20455;-68
2023/12/23 09:56:31;;;;;;;2.80;0.50;;;8.20;29.20;;;;;;5027330;28;20841;-67
2023/12/23 09:58:58;;;;;;;3.73;0.70;;;8.20;29.40;;;;;;5025477;28;20490;-68
2023/12/23 10:01:25;;;;;;;4.13;1.13;;;8.20;29.60;;;;;;5026736;28;20471;-67
2023/12/23 10:03:53;;;;;;;3.40;0.60;;;8.20;29.50;;;;;;5028168;28;20466;-68
2023/12/23 10:06:22;;;;;;;3.23;0.57;;;8.20;29.50;;;;;;5028648;28;20617;-67
2023/12/23 10:08:50;;;;;;;2.80;0.40;;;8.20;29.70;;;;;;5027005;28;20483;-67
2023/12/23 10:11:17;;;;;;;3.10;0.50;;;8.20;30.00;;;;;;5027517;28;20447;-67
2023/12/23 10:13:44;;;;;;;5.00;0.50;;;8.30;29.90;;;;;;5024254;28;20499;-67
2023/12/23 10:16:11;;;;;;;2.70;0.40;;;8.30;30.00;;;;;;5025306;28;20478;-67
2023/12/23 10:18:38;;;;;;;3.80;0.90;;;8.30;29.90;;;;;;5024718;28;20551;-68
2023/12/23 10:21:05;;;;;;;3.37;0.60;;;8.30;29.80;;;;;;5026303;28;20463;-67
2023/12/23 10:23:33;;;;;;;3.30;0.90;;;8.30;29.70;;;;;;5027260;28;20462;-67
2023/12/23 10:26:01;;;;;;;4.23;0.80;;;8.30;29.40;;;;;;5028655;28;20455;-68
2023/12/23 10:28:28;;;;;;;3.70;0.60;;;8.40;29.60;;;;;;5027047;28;20458;-68
2023/12/23 10:31:02;;;;;;;4.30;0.70;;;8.40;29.50;;;;;;5023211;28;20471;-67
2023/12/23 10:33:31;;;;;;;3.57;0.53;;;8.40;29.40;;;;;;5027969;28;20458;-67
2023/12/23 10:35:59;;;;;;;3.00;0.57;;;8.40;29.50;;;;;;5025414;28;20513;-67
2023/12/23 10:38:27;;;;;;;3.97;0.77;;;8.40;29.60;;;;;;5023809;28;20482;-67
2023/12/23 10:41:02;;;;;;;2.90;0.40;;;8.40;29.70;;;;;;5024661;28;20462;-68
2023/12/23 10:43:30;;;;;;;3.67;0.90;;;8.50;29.50;;;;;;5026750;28;20454;-68
2023/12/23 10:46:00;;;;;;;3.73;0.80;;;8.50;29.30;;;;;;5026052;28;20489;-69
2023/12/23 10:48:29;;;;;;;3.23;0.90;;;8.50;29.30;;;;;;5022859;28;20951;-69
2023/12/23 10:50:59;;;;;;;3.87;0.97;;;8.50;29.30;;;;;;5025120;28;20463;-68
2023/12/23 10:53:27;;;;;;;3.40;0.80;;;8.50;29.30;;;;;;5025253;28;20982;-69
2023/12/23 10:55:56;;;;;;;3.87;0.80;;;8.50;29.20;;;;;;5027000;28;20462;-69
2023/12/23 10:58:22;;;;;;;3.07;0.60;;;8.50;29.60;;;;;;5022958;28;20480;-70
2023/12/23 11:00:51;;;;;;;3.20;0.67;;;8.50;29.40;;;;;;5024987;28;20486;-69
2023/12/23 11:03:18;;;;;;;3.30;0.77;;;8.40;29.50;;;;;;5025135;28;20725;-70
2023/12/23 11:05:46;;;;;;;3.73;0.90;;;8.50;29.80;;;;;;5027115;28;20469;-69
2023/12/23 11:08:18;;;;;;;3.93;1.03;;;8.40;29.80;;;;;;5024725;28;20456;-69
2023/12/23 11:10:46;;;;;;;4.60;1.77;;;8.40;29.50;;;;;;5027346;28;20978;-70
2023/12/23 11:13:15;;;;;;;3.70;1.53;;;8.40;29.70;;;;;;5022537;28;20493;-69
2023/12/23 11:15:42;;;;;;;6.73;2.50;;;8.40;29.80;;;;;;5026319;28;20470;-70
2023/12/23 11:18:10;;;;;;;3.90;1.10;;;8.40;30.10;;;;;;5022073;28;21083;-70
2023/12/23 11:20:49;;;;;;;3.67;1.07;;;8.40;30.10;;;;;;5023098;28;20519;-69
2023/12/23 11:23:32;;;;;;;3.20;0.80;;;8.40;30.40;;;;;;5024889;28;20521;-70
2023/12/23 11:25:59;;;;;;;3.87;1.13;;;8.40;30.40;;;;;;5023461;28;20467;-69
2023/12/23 11:28:28;;;;;;;3.10;0.80;;;8.40;30.40;;;;;;5026734;28;20494;-69
2023/12/23 11:30:56;;;;;;;4.03;0.80;;;8.40;30.50;;;;;;5025377;28;20562;-69
2023/12/23 11:33:25;;;;;;;3.40;0.90;;;8.40;30.40;;;;;;5022985;28;20903;-69
2023/12/23 11:35:54;;;;;;;3.53;1.03;;;8.40;30.60;;;;;;5027893;28;20463;-69
2023/12/23 11:38:21;;;;;;;3.90;1.40;;;8.40;30.80;;;;;;5039460;28;21001;-69
2023/12/23 11:40:49;;;;;;;3.60;1.20;;;8.40;30.70;;;;;;5024627;28;20578;-69
2023/12/23 11:43:16;;;;;;;3.53;1.10;;;8.40;30.70;;;;;;5025724;28;20466;-69
2023/12/23 11:45:45;;;;;;;3.97;1.43;;;8.50;31.10;;;;;;5026011;28;20470;-70
2023/12/23 11:48:13;;;;;;;3.63;1.20;;;8.60;30.70;;;;;;5024457;28;20459;-69
2023/12/23 11:50:40;;;;;;;4.20;1.17;;;8.60;30.60;;;;;;5026626;28;20970;-69
2023/12/23 11:53:07;;;;;;;4.17;1.07;;;8.80;30.20;;;;;;5024855;28;20477;-69
2023/12/23 11:55:35;;;;;;;3.83;0.70;;;8.80;30.20;;;;;;5030048;28;20474;-69
2023/12/23 11:58:02;;;;;;;3.07;0.80;;;8.90;29.50;;;;;;5029716;28;20475;-69
2023/12/23 12:00:30;;;;;;;5.80;0.70;;;8.90;29.60;;;;;;5028650;28;20536;-69
2023/12/23 12:02:58;;;;;;;3.07;0.60;;;8.90;29.50;;;;;;5025866;28;20463;-70
2023/12/23 12:05:25;;;;;;;4.60;0.73;;;8.90;29.40;;;;;;5027825;28;20467;-71
2023/12/23 12:07:52;;;;;;;3.00;0.60;;;8.80;29.30;;;;;;5028469;28;20463;-69
2023/12/23 12:10:19;;;;;;;3.07;0.80;;;8.80;29.40;;;;;;5027811;28;20522;-69
2023/12/23 12:12:45;;;;;;;3.23;0.90;;;8.80;29.50;;;;;;5028363;28;20467;-68
2023/12/23 12:15:12;;;;;;;3.50;1.00;;;8.80;29.60;;;;;;5028995;28;20463;-68
2023/12/23 12:17:39;;;;;;;3.23;0.80;;;8.80;29.40;;;;;;5025948;28;20483;-68
2023/12/23 12:20:08;;;;;;;3.50;0.90;;;8.70;29.40;;;;;;5024810;28;20491;-68
2023/12/23 12:22:35;;;;;;;3.93;0.90;;;8.70;29.70;;;;;;5027598;28;21206;-69
2023/12/23 12:25:02;;;;;;;3.93;1.33;;;8.70;29.80;;;;;;5028458;28;20550;-68
2023/12/23 12:27:30;;;;;;;3.10;0.80;;;8.70;29.60;;;;;;5028499;28;20455;-69
2023/12/23 12:29:57;;;;;;;3.07;0.60;;;8.60;29.60;;;;;;5028640;28;20554;-69
2023/12/23 12:32:23;;;;;;;3.63;0.77;;;8.60;29.80;;;;;;5030066;28;20483;-68
2023/12/23 12:34:50;;;;;;;3.20;0.80;;;8.60;30.00;;;;;;5027562;28;20867;-69
2023/12/23 12:37:18;;;;;;;3.10;0.77;;;8.60;30.00;;;;;;5026453;28;20479;-69
2023/12/23 12:39:45;;;;;;;4.50;0.80;;;8.60;30.10;;;;;;5027263;28;20483;-70
2023/12/23 12:42:12;;;;;;;5.53;0.80;;;8.60;29.90;;;;;;5028650;28;20459;-68
2023/12/23 12:44:40;;;;;;;3.07;0.80;;;8.60;30.30;;;;;;5027407;28;20537;-69
2023/12/23 12:47:07;;;;;;;4.17;0.90;;;8.60;30.10;;;;;;5028973;28;20462;-69
2023/12/23 12:49:33;;;;;;;3.20;0.80;;;8.60;30.20;;;;;;5028053;28;20590;-69
2023/12/23 12:52:02;;;;;;;3.90;1.60;;;8.70;30.40;;;;;;5029935;28;20451;-68
2023/12/23 12:54:30;;;;;;;3.17;0.73;;;8.70;29.90;;;;;;5028617;28;20542;-68
2023/12/23 12:56:57;;;;;;;6.50;1.00;;;8.70;30.10;;;;;;5025458;28;22093;-68